Rechercher aéroport 
image banner adimage banner adimage banner ad
image banner ad

NV67 - Pilot Creek Ranches

Situé à Montello, United States

ICAO - NV67, IATA -

Données fournies par Airmate  

Information générale

Coordonnées: N41°6'57" W114°6'49"
Élévation : 4980 feet MSL.
Variation magnétique : 15° East
Voir autres Aéroports à Nevada

Données opérationnelles

Special qualification required
Heure actuelle UTC:
Heure actuelle locale:
Météo à : KENV - Wendover ( 45 km )
METAR: KENV 131856Z AUTO 12008KT 10SM CLR 31/M05 A3001 RMK AO2 SLP121 T03061050
TAF: KENV 131737Z 1318/1418 11008KT P6SM SKC FM132000 14012G21KT P6SM SKC FM140400 VRB05KT P6SM SKC
Voir NOTAMs / SUP AIP / TFR affectant cet aéroport [VIEW]
Fréquences de communication: [VIEW]

Pistes:

Identifiant RWYQFULongueur (ft)Largeur (ft)SurfaceLDA (ft)
07200025EARTH
25200025EARTH

Coordonnées de l'aéroport

Adresse: Montello United States

Vue satellite de NV67